Time;durP1;ratioP1;P1;durP2;ratioP2;P2;SDS_P1;SDS_P2;PMS_P1;PMS_P2;Temp;Humidity;BMP_temperature;BMP_pressure;BME280_temperature;BME280_humidity;BME280_pressure;Samples;Min_cycle;Max_cycle;Signal;HPM_P1;HPM_P2
2023/10/25 00:00:59;;;;;;;99.70;40.53;;;;;;;-144.73;100.00;54719.69;4847413;29;20025;-76
2023/10/25 00:03:24;;;;;;;72.15;35.22;;;;;;;-144.73;100.00;54674.53;4852687;29;20112;-77
2023/10/25 00:05:50;;;;;;;94.20;42.28;;;;;;;-144.73;100.00;54676.59;4845889;29;20201;-76
2023/10/25 00:08:15;;;;;;;160.98;45.80;;;;;;;-144.73;100.00;54686.84;4863060;29;20061;-77
2023/10/25 00:10:41;;;;;;;121.40;45.58;;;;;;;-144.73;100.00;54695.06;4846098;29;20060;-76
2023/10/25 00:13:06;;;;;;;95.82;40.42;;;;;;;-144.73;100.00;54674.53;4848816;29;20086;-77
2023/10/25 00:15:31;;;;;;;117.65;43.55;;;;;;;-144.73;100.00;54641.69;4860923;29;20037;-76
2023/10/25 00:17:57;;;;;;;79.72;36.00;;;;;;;-144.73;100.00;54670.44;4844137;29;20097;-77
2023/10/25 00:20:22;;;;;;;109.53;42.22;;;;;;;-144.73;100.00;54670.44;4852562;29;20039;-76
2023/10/25 00:22:47;;;;;;;124.80;43.70;;;;;;;-144.73;100.00;54686.84;4844636;29;20061;-76
2023/10/25 00:25:13;;;;;;;99.22;41.33;;;;;;;-144.73;100.00;54662.22;4861158;29;20068;-76
2023/10/25 00:27:38;;;;;;;78.75;34.78;;;;;;;-144.73;100.00;54682.75;4847959;29;20025;-77
2023/10/25 00:30:04;;;;;;;88.57;39.08;;;;;;;-144.73;100.00;54682.75;4849465;29;20041;-76
2023/10/25 00:32:29;;;;;;;88.97;35.28;;;;;;;-144.73;100.00;54670.44;4858420;29;20022;-75
2023/10/25 00:34:54;;;;;;;139.68;48.90;;;;;;;-144.73;100.00;54680.69;4862516;29;20042;-77
2023/10/25 00:37:20;;;;;;;144.40;49.75;;;;;;;-144.73;100.00;54711.47;4854459;29;20076;-75
2023/10/25 00:39:45;;;;;;;107.75;42.88;;;;;;;-144.73;100.00;54678.63;4848473;29;20056;-77
2023/10/25 00:42:11;;;;;;;148.63;50.17;;;;;;;-144.73;100.00;54686.84;4847364;29;20025;-76
2023/10/25 00:44:36;;;;;;;84.22;37.88;;;;;;;-144.73;100.00;54690.97;4847123;29;20037;-77
2023/10/25 00:47:02;;;;;;;99.03;40.45;;;;;;;-144.73;100.00;54674.53;4855828;29;20501;-75
2023/10/25 00:49:27;;;;;;;96.95;40.67;;;;;;;-144.73;100.00;54686.84;4857618;29;20078;-76
2023/10/25 00:51:53;;;;;;;103.57;37.38;;;;;;;-144.73;100.00;54703.28;4845222;29;20022;-75
2023/10/25 00:54:20;;;;;;;146.93;48.08;;;;;;;-144.73;100.00;54674.53;4857574;29;20049;-77
2023/10/25 00:56:48;;;;;;;138.82;47.53;;;;;;;-144.73;100.00;54678.63;4859835;29;20053;-76
2023/10/25 00:59:14;;;;;;;152.98;49.05;;;;;;;-144.73;100.00;54697.13;4855197;29;20098;-77
2023/10/25 01:01:41;;;;;;;74.63;35.58;;;;;;;-144.73;100.00;54699.16;4843831;29;20037;-76
2023/10/25 01:04:06;;;;;;;149.05;49.25;;;;;;;-144.73;100.00;54682.75;4853013;29;20036;-76
2023/10/25 01:06:32;;;;;;;113.63;42.55;;;;;;;-144.73;100.00;54678.63;4867376;29;20029;-76
2023/10/25 01:08:57;;;;;;;134.73;47.22;;;;;;;-144.73;100.00;54701.22;4857200;29;20033;-74
2023/10/25 01:11:23;;;;;;;150.02;50.65;;;;;;;-144.73;100.00;54695.06;4859187;29;20108;-75
2023/10/25 01:13:48;;;;;;;117.80;43.53;;;;;;;-144.73;100.00;54676.59;4858973;29;20045;-74
2023/10/25 01:16:14;;;;;;;132.38;46.72;;;;;;;-144.73;100.00;54658.13;4845091;29;20030;-75
2023/10/25 01:18:39;;;;;;;93.75;40.55;;;;;;;-144.73;100.00;54670.44;4869338;29;20030;-77
2023/10/25 01:21:05;;;;;;;105.38;43.05;;;;;;;-144.73;100.00;54649.91;4856065;29;20026;-78
2023/10/25 01:23:30;;;;;;;118.65;44.72;;;;;;;-144.73;100.00;54649.91;4860848;29;20026;-77
2023/10/25 01:25:56;;;;;;;125.97;44.88;;;;;;;-144.73;100.00;54719.69;4847735;29;20112;-78
2023/10/25 01:28:22;;;;;;;151.70;49.03;;;;;;;-144.73;100.00;54699.16;4862396;29;20033;-77
2023/10/25 01:30:47;;;;;;;136.98;47.20;;;;;;;-144.73;100.00;54699.16;4845710;29;20393;-79
2023/10/25 01:33:12;;;;;;;139.20;47.78;;;;;;;-144.73;100.00;54649.91;4855947;29;20026;-75
2023/10/25 01:35:38;;;;;;;159.73;51.22;;;;;;;-144.73;100.00;54690.97;4849967;29;20037;-75
2023/10/25 01:38:04;;;;;;;136.88;46.85;;;;;;;-144.73;100.00;54686.84;4858644;29;20057;-78
2023/10/25 01:40:29;;;;;;;183.80;55.95;;;;;;;-144.73;100.00;54682.75;4851676;29;20045;-77
2023/10/25 01:42:54;;;;;;;128.18;43.00;;;;;;;-144.73;100.00;54703.28;4859964;29;20040;-77
2023/10/25 01:45:24;;;;;;;154.63;50.45;;;;;;;-144.73;100.00;54682.75;4856497;29;20057;-76
2023/10/25 01:47:50;;;;;;;125.18;45.20;;;;;;;-144.73;100.00;54682.75;4855811;29;20025;-76
2023/10/25 01:50:17;;;;;;;195.07;55.40;;;;;;;-144.73;100.00;54649.91;4842558;29;20066;-77
2023/10/25 01:52:42;;;;;;;211.70;58.13;;;;;;;-144.73;100.00;54715.59;4845655;29;20603;-76
2023/10/25 01:55:08;;;;;;;175.10;52.45;;;;;;;-144.73;100.00;54711.47;4844337;29;20033;-75
2023/10/25 01:57:33;;;;;;;136.07;48.78;;;;;;;-144.73;100.00;54658.13;4859436;29;20476;-77
2023/10/25 02:00:01;;;;;;;135.55;46.53;;;;;;;-144.73;100.00;54688.91;4839546;29;20048;-76
2023/10/25 02:02:26;;;;;;;195.20;56.45;;;;;;;-144.73;100.00;54678.63;4841748;29;20493;-76
2023/10/25 02:04:51;;;;;;;169.85;53.15;;;;;;;-144.73;100.00;54690.97;4858165;29;20053;-76
2023/10/25 02:07:17;;;;;;;150.05;49.63;;;;;;;-144.73;100.00;54697.13;4849820;29;20037;-75
2023/10/25 02:09:42;;;;;;;167.43;50.40;;;;;;;-144.73;100.00;54711.47;4844559;29;20112;-76
2023/10/25 02:12:08;;;;;;;217.95;59.70;;;;;;;-144.73;100.00;54690.97;4843330;29;20061;-74
2023/10/25 02:14:33;;;;;;;167.73;54.05;;;;;;;-144.73;100.00;54703.28;4862400;29;20046;-75
2023/10/25 02:16:58;;;;;;;176.55;55.47;;;;;;;-144.73;100.00;54670.44;4859415;29;20241;-75
2023/10/25 02:19:24;;;;;;;213.55;56.50;;;;;;;-144.73;100.00;54690.97;4842682;29;20042;-75
2023/10/25 02:21:49;;;;;;;156.63;50.40;;;;;;;-144.73;100.00;54674.53;4842445;29;20033;-77
2023/10/25 02:24:15;;;;;;;199.38;53.35;;;;;;;-144.73;100.00;54670.44;4848313;29;20037;-77
2023/10/25 02:26:41;;;;;;;137.32;44.17;;;;;;;-144.73;100.00;54658.13;4844113;29;20033;-76
2023/10/25 02:29:07;;;;;;;174.18;51.83;;;;;;;-144.73;100.00;54682.75;4853845;29;20026;-77
2023/10/25 02:31:33;;;;;;;210.60;58.10;;;;;;;-144.73;100.00;54662.22;4857285;29;20052;-76
2023/10/25 02:33:59;;;;;;;188.27;53.30;;;;;;;-144.73;100.00;54682.75;4864058;29;20112;-76
2023/10/25 02:36:24;;;;;;;115.85;42.85;;;;;;;-144.73;100.00;54695.06;4846827;29;20093;-76
2023/10/25 02:38:50;;;;;;;179.10;53.75;;;;;;;-144.73;100.00;54699.16;4856409;29;20036;-77
2023/10/25 02:41:15;;;;;;;222.68;57.22;;;;;;;-144.73;100.00;54711.47;4865108;29;20030;-76
2023/10/25 02:43:41;;;;;;;190.48;55.72;;;;;;;-144.73;100.00;54658.13;4857867;29;20036;-77
2023/10/25 02:46:09;;;;;;;241.30;61.92;;;;;;;-144.73;100.00;54690.97;4840604;29;20022;-76
2023/10/25 02:48:37;;;;;;;205.68;56.42;;;;;;;-144.73;100.00;54670.44;4856286;29;20036;-75
2023/10/25 02:51:04;;;;;;;179.93;51.40;;;;;;;-144.73;100.00;54670.44;4854198;29;20025;-78
2023/10/25 02:53:30;;;;;;;219.35;56.00;;;;;;;-144.73;100.00;54682.75;4857690;29;20030;-76
2023/10/25 02:56:00;;;;;;;155.80;52.13;;;;;;;-144.73;100.00;54674.53;4849631;29;20022;-78
2023/10/25 02:58:25;;;;;;;206.52;57.65;;;;;;;-144.73;100.00;54690.97;4852434;29;20033;-75
2023/10/25 03:00:51;;;;;;;221.32;59.38;;;;;;;-144.73;100.00;54670.44;4861489;29;20038;-76
2023/10/25 03:03:16;;;;;;;179.68;52.42;;;;;;;-144.73;100.00;54682.75;4860819;29;20026;-76
2023/10/25 03:05:41;;;;;;;242.95;61.92;;;;;;;-144.73;100.00;54654.00;4863695;29;20045;-76
2023/10/25 03:08:07;;;;;;;220.85;57.65;;;;;;;-144.73;100.00;54719.69;4857807;29;20037;-75
2023/10/25 03:10:32;;;;;;;212.63;56.90;;;;;;;-144.73;100.00;54662.22;4856124;29;20034;-77
2023/10/25 03:12:58;;;;;;;220.68;60.25;;;;;;;-144.73;100.00;54670.44;4841870;29;20025;-75
2023/10/25 03:15:24;;;;;;;189.10;57.08;;;;;;;-144.73;100.00;54699.16;4841625;29;20578;-76
2023/10/25 03:17:49;;;;;;;221.32;60.88;;;;;;;-144.73;100.00;54707.38;4843204;29;20021;-75
2023/10/25 03:20:15;;;;;;;237.93;60.15;;;;;;;-144.73;100.00;54674.53;4847061;29;20038;-76
2023/10/25 03:22:40;;;;;;;228.98;60.75;;;;;;;-144.73;100.00;54678.63;4864164;29;20097;-76
2023/10/25 03:25:06;;;;;;;234.35;59.80;;;;;;;-144.73;100.00;54684.78;4856231;29;20117;-76
2023/10/25 03:27:31;;;;;;;241.55;60.92;;;;;;;-144.73;100.00;54699.16;4848882;29;20384;-76
2023/10/25 03:29:57;;;;;;;265.40;63.95;;;;;;;-144.73;100.00;54693.00;4856158;29;20045;-75
2023/10/25 03:32:22;;;;;;;278.70;67.60;;;;;;;-144.73;100.00;54703.28;4855054;29;20036;-76
2023/10/25 03:34:51;;;;;;;216.23;59.75;;;;;;;-144.73;100.00;54699.16;4843222;29;20049;-75
2023/10/25 03:37:16;;;;;;;246.32;61.47;;;;;;;-144.73;100.00;54649.91;4861965;29;20047;-76
2023/10/25 03:39:41;;;;;;;199.18;57.03;;;;;;;-144.73;100.00;54703.28;4852111;29;20419;-75
2023/10/25 03:42:07;;;;;;;167.93;52.90;;;;;;;-144.73;100.00;54686.84;4857933;29;20040;-76
2023/10/25 03:44:32;;;;;;;200.02;55.05;;;;;;;-144.73;100.00;54670.44;4853337;29;20052;-75
2023/10/25 03:46:57;;;;;;;226.02;62.13;;;;;;;-144.73;100.00;54713.53;4858162;29;20037;-76
2023/10/25 03:49:23;;;;;;;193.93;56.47;;;;;;;-144.73;100.00;54686.84;4857938;29;20156;-75
2023/10/25 03:51:48;;;;;;;223.77;60.97;;;;;;;-144.73;100.00;54719.69;4858119;29;20029;-75
2023/10/25 03:54:13;;;;;;;216.60;58.17;;;;;;;-144.73;100.00;54670.44;4855575;29;20060;-76
2023/10/25 03:56:40;;;;;;;237.75;61.35;;;;;;;-144.73;100.00;54695.06;4855516;29;20033;-76
2023/10/25 03:59:05;;;;;;;283.90;67.20;;;;;;;-144.73;100.00;54645.78;4842998;29;20045;-76
2023/10/25 04:01:31;;;;;;;278.00;62.35;;;;;;;-144.73;100.00;54674.53;4864045;29;20025;-76
2023/10/25 04:03:56;;;;;;;254.93;62.45;;;;;;;-144.73;100.00;54662.22;4855965;29;20041;-76
2023/10/25 04:06:22;;;;;;;201.88;55.90;;;;;;;-144.73;100.00;54670.44;4858521;29;20034;-78
2023/10/25 04:08:47;;;;;;;215.20;56.65;;;;;;;-144.73;100.00;54699.16;4840088;29;20052;-74
2023/10/25 04:11:12;;;;;;;234.68;58.00;;;;;;;-144.73;100.00;54707.38;4841853;29;20469;-76
2023/10/25 04:13:38;;;;;;;209.98;54.92;;;;;;;-144.73;100.00;54686.84;4868879;29;20017;-75
2023/10/25 04:16:05;;;;;;;176.27;51.70;;;;;;;-144.73;100.00;54701.22;4847036;29;20037;-76
2023/10/25 04:18:32;;;;;;;281.23;61.70;;;;;;;-144.73;100.00;54686.84;4856942;29;20036;-75
2023/10/25 04:20:59;;;;;;;239.68;59.70;;;;;;;-144.73;100.00;54703.28;4865418;29;20032;-76
2023/10/25 04:23:25;;;;;;;217.05;54.80;;;;;;;-144.73;100.00;54654.00;4843996;29;20077;-75
2023/10/25 04:25:51;;;;;;;329.45;67.72;;;;;;;-144.73;100.00;54645.78;4876476;29;20064;-76
2023/10/25 04:28:18;;;;;;;301.33;64.10;;;;;;;-144.73;100.00;54658.13;4864044;29;20059;-74
2023/10/25 04:30:44;;;;;;;419.92;73.55;;;;;;;-144.73;100.00;54631.44;4860638;29;20621;-76
2023/10/25 04:33:10;;;;;;;283.33;57.00;;;;;;;-144.73;100.00;54656.06;4852835;29;20037;-77
2023/10/25 04:35:35;;;;;;;384.98;68.35;;;;;;;-144.73;100.00;54670.44;4860213;29;20034;-76
2023/10/25 04:38:01;;;;;;;296.05;63.08;;;;;;;-144.73;100.00;54703.28;4861515;29;20078;-76
2023/10/25 04:40:27;;;;;;;258.30;57.88;;;;;;;-144.73;100.00;54676.59;4863119;29;20044;-76
2023/10/25 04:42:53;;;;;;;426.00;68.55;;;;;;;-144.73;100.00;54649.91;4846454;29;20062;-75
2023/10/25 04:45:20;;;;;;;357.25;68.30;;;;;;;-144.73;100.00;54717.66;4863606;29;20056;-76
2023/10/25 04:47:45;;;;;;;232.15;50.65;;;;;;;-144.73;100.00;54674.53;4864485;29;20030;-76
2023/10/25 04:50:11;;;;;;;319.52;62.13;;;;;;;-144.73;100.00;54686.84;4847386;29;20037;-75
2023/10/25 04:52:36;;;;;;;296.27;58.15;;;;;;;-144.73;100.00;54654.00;4848769;29;20078;-76
2023/10/25 04:55:02;;;;;;;302.08;55.10;;;;;;;-144.73;100.00;54686.84;4856297;29;20041;-75
2023/10/25 04:57:27;;;;;;;403.20;63.58;;;;;;;-144.73;100.00;54662.22;4865083;29;20029;-76
2023/10/25 04:59:53;;;;;;;548.05;78.40;;;;;;;-144.73;100.00;54678.63;4861760;29;20041;-75
2023/10/25 05:02:19;;;;;;;351.63;66.35;;;;;;;-144.73;100.00;54678.63;4855949;29;20021;-76
2023/10/25 05:04:45;;;;;;;455.50;64.68;;;;;;;-144.73;100.00;54649.91;4860918;29;20060;-75
2023/10/25 05:07:10;;;;;;;658.25;72.32;;;;;;;-144.73;100.00;54699.16;4860987;29;20021;-76
2023/10/25 05:09:36;;;;;;;566.65;76.47;;;;;;;-144.73;100.00;54641.69;4858708;29;20112;-75
2023/10/25 05:12:04;;;;;;;399.63;65.00;;;;;;;-144.73;100.00;54690.97;4860943;29;20029;-76
2023/10/25 05:14:30;;;;;;;497.25;59.90;;;;;;;-144.73;100.00;54670.44;4869073;29;20037;-76
2023/10/25 05:16:56;;;;;;;672.50;82.10;;;;;;;-144.73;100.00;54697.13;4848427;29;20108;-76
2023/10/25 05:19:22;;;;;;;626.15;81.57;;;;;;;-144.73;100.00;54695.06;4848217;29;20049;-75
2023/10/25 05:21:51;;;;;;;666.83;74.85;;;;;;;-144.73;100.00;54670.44;4862800;29;20076;-76
2023/10/25 05:24:17;;;;;;;741.53;82.00;;;;;;;-144.73;100.00;54658.13;4853465;29;20037;-77
2023/10/25 05:26:44;;;;;;;768.13;87.15;;;;;;;-144.73;100.00;54660.16;4864373;29;20040;-76
2023/10/25 05:29:10;;;;;;;546.58;71.85;;;;;;;-144.73;100.00;54686.84;4864200;29;20036;-76
2023/10/25 05:31:42;;;;;;;772.30;80.55;;;;;;;-144.73;100.00;54682.75;4847822;29;20084;-76
2023/10/25 05:34:09;;;;;;;627.63;78.60;;;;;;;-144.73;100.00;54651.97;4866199;29;20044;-76
2023/10/25 05:36:34;;;;;;;630.22;83.68;;;;;;;-144.73;100.00;54649.91;4864981;29;20026;-76
2023/10/25 05:39:00;;;;;;;716.70;87.53;;;;;;;-144.73;100.00;54641.69;4869722;29;20041;-76
2023/10/25 05:41:29;;;;;;;543.90;72.32;;;;;;;-144.73;100.00;54662.22;4862871;29;20067;-76
2023/10/25 05:44:15;;;;;;;468.00;72.70;;;;;;;-144.73;100.00;54662.22;4845458;29;20562;-78
2023/10/25 05:46:41;;;;;;;453.52;73.18;;;;;;;-144.73;100.00;54645.78;4862052;29;20060;-77
2023/10/25 05:49:08;;;;;;;415.38;71.22;;;;;;;-144.73;100.00;54690.97;4849056;29;20045;-78
2023/10/25 05:51:34;;;;;;;419.33;69.78;;;;;;;-144.73;100.00;54699.16;4849377;29;20032;-77
2023/10/25 05:54:00;;;;;;;408.90;68.50;;;;;;;-144.73;100.00;54695.06;4849929;29;20126;-77
2023/10/25 05:56:26;;;;;;;347.75;64.75;;;;;;;-144.73;100.00;54645.78;4861872;29;20137;-77
2023/10/25 05:58:56;;;;;;;297.05;61.22;;;;;;;-144.73;100.00;54658.13;4855267;29;20041;-77
2023/10/25 06:01:48;;;;;;;266.50;62.85;;;;;;;-144.73;100.00;54678.63;4846727;29;20054;-77
2023/10/25 06:04:15;;;;;;;218.95;54.15;;;;;;;-144.73;100.00;54693.00;4832987;29;20065;-78
2023/10/25 06:06:45;;;;;;;238.77;54.38;;;;;;;-144.73;100.00;54678.63;4848034;29;20410;-77
2023/10/25 06:09:11;;;;;;;252.27;54.30;;;;;;;-144.73;100.00;54656.06;4869682;29;20040;-78
2023/10/25 06:11:40;;;;;;;262.13;58.30;;;;;;;-144.73;100.00;54697.13;4864749;29;20401;-77
2023/10/25 06:14:07;;;;;;;204.57;50.40;;;;;;;-144.73;100.00;54707.38;4847592;29;20432;-76
2023/10/25 06:16:33;;;;;;;162.93;45.35;;;;;;;-144.73;100.00;54686.84;4844539;29;20048;-75
2023/10/25 06:18:59;;;;;;;174.25;48.70;;;;;;;-144.73;100.00;54658.13;4859385;29;20461;-75
2023/10/25 06:21:24;;;;;;;215.07;50.30;;;;;;;-144.73;100.00;54697.13;4865473;29;20037;-75
2023/10/25 06:23:51;;;;;;;233.90;54.35;;;;;;;-144.73;100.00;54699.16;4846038;29;20041;-75
2023/10/25 06:26:16;;;;;;;180.45;49.85;;;;;;;-144.73;100.00;54674.53;4865528;29;20029;-76
2023/10/25 06:28:42;;;;;;;194.75;49.65;;;;;;;-144.73;100.00;54686.84;4862263;29;20108;-75
2023/10/25 06:31:11;;;;;;;179.52;49.22;;;;;;;-144.73;100.00;54690.97;4849133;29;20021;-75
2023/10/25 06:33:37;;;;;;;208.18;52.88;;;;;;;-144.73;100.00;54695.06;4862657;29;20009;-75
2023/10/25 06:36:03;;;;;;;209.50;52.67;;;;;;;-144.73;100.00;54688.91;4849015;29;20022;-76
2023/10/25 06:38:38;;;;;;;193.25;53.15;;;;;;;-144.73;100.00;54686.84;4864223;29;20028;-75
2023/10/25 06:41:04;;;;;;;197.63;52.13;;;;;;;-144.73;100.00;54654.00;4847253;29;20024;-76
2023/10/25 06:43:30;;;;;;;159.48;47.83;;;;;;;-144.73;100.00;54674.53;4851973;29;20034;-75
2023/10/25 06:45:56;;;;;;;157.80;46.60;;;;;;;-144.73;100.00;54699.16;4869579;29;20028;-76
2023/10/25 06:48:22;;;;;;;153.57;47.70;;;;;;;-144.73;100.00;54674.53;4870954;29;20025;-75
2023/10/25 06:50:47;;;;;;;135.10;42.65;;;;;;;-144.73;100.00;54719.69;4855462;29;20038;-76
2023/10/25 06:53:13;;;;;;;168.40;49.38;;;;;;;-144.73;100.00;54660.16;4872505;29;20029;-75
2023/10/25 06:55:39;;;;;;;197.38;52.85;;;;;;;-144.73;100.00;54645.78;4864156;29;20497;-76
2023/10/25 06:58:04;;;;;;;169.70;47.88;;;;;;;-144.73;100.00;54686.84;4858818;29;20022;-75
2023/10/25 07:00:30;;;;;;;161.73;45.72;;;;;;;-144.73;100.00;54637.59;4847748;29;20116;-75
2023/10/25 07:03:02;;;;;;;174.98;48.92;;;;;;;-144.73;100.00;54674.53;4848699;29;20089;-76
2023/10/25 07:05:29;;;;;;;187.45;50.85;;;;;;;-144.73;100.00;54682.75;4865539;29;20037;-75
2023/10/25 07:07:55;;;;;;;185.02;49.65;;;;;;;-144.73;100.00;54645.78;4865227;29;20025;-75
2023/10/25 07:10:22;;;;;;;136.35;43.80;;;;;;;-144.73;100.00;54699.16;4851282;29;20533;-76
2023/10/25 07:12:47;;;;;;;139.10;43.63;;;;;;;-144.73;100.00;54695.06;4846102;29;20037;-76
2023/10/25 07:15:13;;;;;;;160.35;50.50;;;;;;;-144.73;100.00;54703.28;4867459;29;20033;-75
2023/10/25 07:17:39;;;;;;;128.65;41.45;;;;;;;-144.73;100.00;54625.28;4853909;29;20055;-76
2023/10/25 07:20:09;;;;;;;148.32;45.95;;;;;;;-144.73;100.00;54699.16;4865061;29;20316;-75
2023/10/25 07:22:35;;;;;;;108.03;38.75;;;;;;;-144.73;100.00;54674.53;4854061;29;20673;-76
2023/10/25 07:25:01;;;;;;;143.75;45.67;;;;;;;-144.73;100.00;54686.84;4844058;29;20053;-75
2023/10/25 07:27:26;;;;;;;130.85;43.53;;;;;;;-144.73;100.00;54654.00;4842309;29;20017;-76
2023/10/25 07:29:51;;;;;;;128.98;44.60;;;;;;;-144.73;100.00;54670.44;4862123;29;20045;-76
2023/10/25 07:32:17;;;;;;;112.75;39.13;;;;;;;-144.73;100.00;54662.22;4857747;29;20056;-76
2023/10/25 07:34:42;;;;;;;124.55;42.35;;;;;;;-144.73;100.00;54651.97;4846908;29;20048;-76
2023/10/25 07:37:08;;;;;;;133.10;43.50;;;;;;;-144.73;100.00;54637.59;4861633;29;20557;-75
2023/10/25 07:39:33;;;;;;;117.70;43.17;;;;;;;-144.73;100.00;54654.00;4865228;29;20026;-76
2023/10/25 07:41:59;;;;;;;104.20;38.72;;;;;;;-144.73;100.00;54690.97;4858624;29;20029;-76
2023/10/25 07:44:25;;;;;;;87.28;37.05;;;;;;;-144.73;100.00;54649.91;4854299;29;20089;-76
2023/10/25 07:46:50;;;;;;;94.10;37.42;;;;;;;-144.73;100.00;54678.63;4857406;29;20060;-76
2023/10/25 07:49:15;;;;;;;97.82;39.20;;;;;;;-144.73;100.00;54674.53;4858546;29;20029;-76
2023/10/25 07:51:41;;;;;;;95.20;35.67;;;;;;;-144.73;100.00;54674.53;4839319;29;20041;-76
2023/10/25 07:54:06;;;;;;;90.47;32.78;;;;;;;-144.73;100.00;54707.38;4860362;29;20037;-75
2023/10/25 07:56:31;;;;;;;71.85;29.80;;;;;;;-144.73;100.00;54678.63;4844850;29;20154;-76
2023/10/25 07:58:58;;;;;;;70.80;32.30;;;;;;;-144.73;100.00;54654.00;4862746;29;20038;-76
2023/10/25 08:01:23;;;;;;;63.55;30.05;;;;;;;-144.73;100.00;54686.84;4862960;29;20025;-75
2023/10/25 08:03:49;;;;;;;69.47;31.60;;;;;;;-144.73;100.00;54662.22;4863152;29;20039;-76
2023/10/25 08:06:14;;;;;;;53.13;27.98;;;;;;;-144.73;100.00;54684.78;4862812;29;20116;-76
2023/10/25 08:08:40;;;;;;;58.35;27.88;;;;;;;-144.73;100.00;54625.28;4867568;29;20052;-76
2023/10/25 08:11:06;;;;;;;56.90;28.23;;;;;;;-144.73;100.00;54686.84;4866019;29;20045;-78
2023/10/25 08:13:33;;;;;;;43.70;23.05;;;;;;;-144.73;100.00;54670.44;4863834;29;20017;-77
2023/10/25 08:16:00;;;;;;;50.22;24.30;;;;;;;-144.73;100.00;54707.38;4856718;29;20029;-76
2023/10/25 08:18:30;;;;;;;51.28;23.02;;;;;;;-144.73;100.00;54662.22;4852049;29;20025;-77
2023/10/25 08:20:56;;;;;;;52.30;23.63;;;;;;;-144.73;100.00;54699.16;4868935;29;20057;-77
2023/10/25 08:23:22;;;;;;;55.05;21.73;;;;;;;-144.73;100.00;54670.44;4847188;29;20108;-77
2023/10/25 08:25:48;;;;;;;51.55;22.42;;;;;;;-144.73;100.00;54690.97;4850506;29;20128;-77
2023/10/25 08:28:14;;;;;;;38.55;19.42;;;;;;;-144.73;100.00;54674.53;4851036;29;20086;-77
2023/10/25 08:30:39;;;;;;;36.92;20.58;;;;;;;-144.73;100.00;54674.53;4861376;29;20529;-77
2023/10/25 08:33:05;;;;;;;37.00;18.77;;;;;;;-144.73;100.00;54711.47;4859270;29;20129;-77
2023/10/25 08:35:30;;;;;;;38.25;18.95;;;;;;;-144.73;100.00;54682.75;4842336;29;20033;-78
2023/10/25 08:37:55;;;;;;;48.30;21.73;;;;;;;-144.73;100.00;54672.47;4847557;29;20029;-77
2023/10/25 08:40:23;;;;;;;37.80;18.90;;;;;;;-144.73;100.00;54672.47;4842560;29;20117;-77
2023/10/25 08:42:49;;;;;;;38.40;19.92;;;;;;;-144.73;100.00;54678.63;4867537;29;20029;-77
2023/10/25 08:45:16;;;;;;;40.60;19.15;;;;;;;-144.73;100.00;54678.63;4865193;29;20036;-76
2023/10/25 08:47:42;;;;;;;40.22;20.40;;;;;;;-144.73;100.00;54674.53;4862993;29;20040;-75
2023/10/25 08:50:08;;;;;;;31.02;17.08;;;;;;;-144.73;100.00;54641.69;4864280;29;20070;-75
2023/10/25 08:52:35;;;;;;;30.42;16.90;;;;;;;-144.73;100.00;54686.84;4845736;29;20075;-75
2023/10/25 08:55:01;;;;;;;27.30;15.02;;;;;;;-144.73;100.00;54670.44;4862086;29;20042;-78
2023/10/25 08:57:28;;;;;;;29.95;16.50;;;;;;;-144.73;100.00;54678.63;4865462;29;20030;-77
2023/10/25 08:59:55;;;;;;;33.15;17.05;;;;;;;-144.73;100.00;54674.53;4848223;29;20052;-77
2023/10/25 09:02:20;;;;;;;24.88;14.98;;;;;;;-144.73;100.00;54662.22;4861618;29;20033;-77
2023/10/25 09:05:12;;;;;;;31.35;15.23;;;;;;;-144.73;100.00;54680.69;4854689;29;20031;-78
2023/10/25 09:07:37;;;;;;;26.85;14.90;;;;;;;-144.73;100.00;54707.38;4849037;29;20413;-78
2023/10/25 09:10:22;;;;;;;30.13;13.35;;;;;;;-144.73;100.00;54690.97;4852591;29;20062;-77
2023/10/25 09:12:48;;;;;;;26.17;13.25;;;;;;;-144.73;100.00;54670.44;4844691;29;20048;-77
2023/10/25 09:15:13;;;;;;;30.73;14.00;;;;;;;-144.73;100.00;54662.22;4857564;29;20565;-77
2023/10/25 09:17:39;;;;;;;34.65;15.10;;;;;;;-144.73;100.00;54658.13;4864323;29;20477;-78
2023/10/25 09:20:08;;;;;;;22.35;13.38;;;;;;;-144.73;100.00;54627.31;4860064;29;20073;-77
2023/10/25 09:22:34;;;;;;;26.33;12.93;;;;;;;-144.73;100.00;54658.13;4870594;29;20093;-77
2023/10/25 09:25:02;;;;;;;25.83;12.98;;;;;;;-144.73;100.00;54674.53;4850505;29;20038;-77
2023/10/25 09:27:28;;;;;;;36.22;13.52;;;;;;;-144.73;100.00;54678.63;4866744;29;20022;-78
2023/10/25 09:30:11;;;;;;;24.90;12.43;;;;;;;-144.73;100.00;54658.13;4861152;29;20124;-77
2023/10/25 09:32:36;;;;;;;31.95;12.48;;;;;;;-144.73;100.00;54612.97;4867527;29;20025;-78
2023/10/25 09:35:03;;;;;;;31.50;13.20;;;;;;;-144.73;100.00;54654.00;4855981;29;20120;-78
2023/10/25 09:37:28;;;;;;;34.80;13.15;;;;;;;-144.73;100.00;54707.38;4848387;29;20033;-78
2023/10/25 09:39:54;;;;;;;23.98;12.30;;;;;;;-144.73;100.00;54678.63;4848310;29;20037;-78
2023/10/25 09:42:25;;;;;;;18.83;11.45;;;;;;;-144.73;100.00;54674.53;4867105;29;20025;-78
2023/10/25 09:45:01;;;;;;;26.27;12.15;;;;;;;-144.73;100.00;54699.16;4862591;29;20497;-78
2023/10/25 09:47:29;;;;;;;31.38;11.65;;;;;;;-144.73;100.00;54658.13;4856638;29;20085;-78
2023/10/25 09:50:00;;;;;;;20.73;11.32;;;;;;;-144.73;100.00;54658.13;4860584;29;20441;-77
2023/10/25 09:52:26;;;;;;;26.25;11.98;;;;;;;-144.73;100.00;54645.78;4862137;29;20187;-77
2023/10/25 09:55:04;;;;;;;17.27;9.18;;;;;;;-144.73;100.00;54682.75;4863612;29;20499;-77
2023/10/25 09:57:32;;;;;;;21.52;10.10;;;;;;;-144.73;100.00;54670.44;4858119;29;20028;-78
2023/10/25 09:59:58;;;;;;;18.35;9.00;;;;;;;-144.73;100.00;54645.78;4849281;29;20045;-78
2023/10/25 10:02:46;;;;;;;20.17;9.85;;;;;;;-144.73;100.00;54670.44;4846530;29;20029;-78
2023/10/25 10:05:20;;;;;;;17.10;9.07;;;;;;;-144.73;100.00;54686.84;4850304;29;20105;-78
2023/10/25 10:07:57;;;;;;;19.38;8.30;;;;;;;-144.73;100.00;54697.13;4848739;29;20032;-78
2023/10/25 10:10:39;;;;;;;23.88;10.50;;;;;;;-144.73;100.00;54670.44;4846635;29;20034;-78
2023/10/25 10:13:17;;;;;;;;;;;;;;;-144.73;100.00;54695.06;4861599;29;20028;-78
2023/10/25 10:16:00;;;;;;;23.40;8.75;;;;;;;-144.73;100.00;54641.69;4870676;29;19918;-78
2023/10/25 10:18:34;;;;;;;15.82;7.35;;;;;;;-144.73;100.00;54621.16;4872659;29;20025;-78
2023/10/25 10:21:01;;;;;;;15.60;8.00;;;;;;;-144.73;100.00;54670.44;4861222;29;20062;-78
2023/10/25 10:23:38;;;;;;;17.02;8.90;;;;;;;-144.73;100.00;54645.78;4860919;29;20104;-78
2023/10/25 10:26:04;;;;;;;24.40;7.05;;;;;;;-144.73;100.00;54649.91;4859675;29;20037;-77
2023/10/25 10:28:39;;;;;;;18.92;8.13;;;;;;;-144.73;100.00;54625.28;4860652;29;20036;-77
2023/10/25 10:31:06;;;;;;;18.60;7.47;;;;;;;-144.73;100.00;54621.16;4861097;29;20114;-77
2023/10/25 10:33:35;;;;;;;16.15;6.07;;;;;;;-144.73;100.00;54658.13;4855459;29;20037;-77
2023/10/25 10:36:01;;;;;;;20.23;7.50;;;;;;;-144.73;100.00;54612.97;4855220;29;20029;-77
2023/10/25 10:38:27;;;;;;;16.52;7.28;;;;;;;-144.73;100.00;54662.22;4844471;29;20033;-77
2023/10/25 10:41:01;;;;;;;18.10;7.53;;;;;;;-144.73;100.00;54658.13;4844737;29;20041;-77
2023/10/25 10:43:26;;;;;;;14.98;7.22;;;;;;;-144.73;100.00;54656.06;4863003;29;20025;-77
2023/10/25 10:45:54;;;;;;;18.23;6.90;;;;;;;-144.73;100.00;54662.22;4853455;29;20057;-77
2023/10/25 10:48:32;;;;;;;11.93;5.60;;;;;;;-144.73;100.00;54647.84;4855983;29;20026;-77